createdAt,value
2018-02-27T00:00:55.445Z,50.16
2018-02-27T00:01:55.865Z,50.1
2018-02-27T00:02:55.443Z,50.21
2018-02-27T00:03:55.431Z,50.1
2018-02-27T00:04:55.455Z,50.03
2018-02-27T00:05:55.311Z,49.73
2018-02-27T00:06:55.823Z,49.83
2018-02-27T00:07:55.457Z,49.87
2018-02-27T00:08:55.454Z,49.95
2018-02-27T00:09:55.338Z,49.98
2018-02-27T00:10:55.468Z,49.99
2018-02-27T00:11:55.946Z,50.03
2018-02-27T00:12:55.494Z,49.94
2018-02-27T00:13:55.488Z,50.02
2018-02-27T00:14:55.350Z,49.93
2018-02-27T00:15:55.335Z,49.75
2018-02-27T00:16:55.338Z,50.13
2018-02-27T00:17:55.361Z,49.45
2018-02-27T00:18:55.351Z,49.12
2018-02-27T00:19:55.352Z,49.49
2018-02-27T00:20:55.358Z,49.64
2018-02-27T00:21:55.811Z,49.73
2018-02-27T00:22:55.368Z,49.77
2018-02-27T00:23:55.377Z,49.88
2018-02-27T00:24:55.374Z,49.86
2018-02-27T00:25:55.373Z,49.93
2018-02-27T00:26:55.397Z,50.11
2018-02-27T00:27:55.372Z,50.19
2018-02-27T00:28:55.517Z,50.15
2018-02-27T00:29:55.427Z,50.15
2018-02-27T00:30:55.374Z,50.05
2018-02-27T00:31:55.881Z,50.15
2018-02-27T00:32:55.368Z,50.13
2018-02-27T00:33:55.383Z,50.34
2018-02-27T00:34:55.402Z,50.22
2018-02-27T00:35:55.389Z,50.58
2018-02-27T00:36:55.402Z,50.44
2018-02-27T00:37:55.408Z,50.45
2018-02-27T00:38:55.414Z,50.43
2018-02-27T00:39:55.412Z,50.52
2018-02-27T00:40:55.408Z,50.61
2018-02-27T00:41:55.976Z,50.44
2018-02-27T00:42:55.448Z,50.47
2018-02-27T00:43:55.418Z,50.33
2018-02-27T00:44:55.402Z,50.23
2018-02-27T00:45:55.419Z,50.52
2018-02-27T00:46:55.412Z,50.44
2018-02-27T00:47:55.405Z,50.45
2018-02-27T00:48:55.682Z,50.6
2018-02-27T00:49:55.445Z,50.83
2018-02-27T00:50:55.587Z,50.76
2018-02-27T00:51:55.599Z,50.62
2018-02-27T00:52:55.602Z,50.81
2018-02-27T00:53:55.603Z,50.62
2018-02-27T00:54:55.436Z,50.74
2018-02-27T00:55:55.627Z,50.69
2018-02-27T00:56:55.613Z,50.53
2018-02-27T00:57:55.610Z,50.77
2018-02-27T00:58:55.633Z,50.71
2018-02-27T00:59:55.459Z,50.69
2018-02-27T01:00:55.623Z,50.71
2018-02-27T01:01:55.628Z,50.74
2018-02-27T01:02:55.456Z,50.75
2018-02-27T01:03:55.614Z,50.78
2018-02-27T01:04:55.636Z,50.89
2018-02-27T01:05:55.635Z,50.96
2018-02-27T01:06:55.673Z,51
2018-02-27T01:07:55.463Z,51.04
2018-02-27T01:08:55.476Z,50.97
2018-02-27T01:09:55.499Z,50.83
2018-02-27T01:10:55.484Z,50.82
2018-02-27T01:11:55.488Z,50.92
2018-02-27T01:12:55.483Z,50.87
2018-02-27T01:13:55.498Z,50.96
2018-02-27T01:14:55.514Z,51.05
2018-02-27T01:15:55.493Z,51.17
2018-02-27T01:16:55.502Z,51.04
2018-02-27T01:17:55.487Z,50.59
2018-02-27T01:18:55.498Z,50.4
2018-02-27T01:19:55.507Z,50.56
2018-02-27T01:20:55.492Z,50.75
2018-02-27T01:21:55.559Z,51.02
2018-02-27T01:22:55.508Z,50.85
2018-02-27T01:23:55.513Z,50.92
2018-02-27T01:24:55.538Z,50.86
2018-02-27T01:25:55.705Z,50.97
2018-02-27T01:28:55.558Z,50.69
2018-02-27T01:29:55.532Z,50.86
2018-02-27T01:30:55.523Z,51.02
2018-02-27T01:31:55.536Z,50.93
2018-02-27T01:32:55.543Z,50.79
2018-02-27T01:33:55.542Z,50.9
2018-02-27T01:34:55.542Z,50.93
2018-02-27T01:35:55.539Z,50.93
2018-02-27T01:36:55.556Z,50.92
2018-02-27T01:37:55.561Z,50.95
2018-02-27T01:38:55.596Z,51.01
2018-02-27T01:39:55.563Z,50.93
2018-02-27T01:40:55.567Z,50.97
2018-02-27T01:41:55.574Z,50.79
2018-02-27T01:42:55.559Z,50.65
2018-02-27T01:43:55.561Z,50.74
2018-02-27T01:44:55.569Z,50.81
2018-02-27T01:45:55.596Z,50.99
2018-02-27T01:46:55.585Z,51.08
2018-02-27T01:47:55.596Z,50.93
2018-02-27T01:48:55.594Z,51.14
2018-02-27T01:49:55.644Z,51.18
2018-02-27T01:50:55.690Z,51.09
2018-02-27T01:51:55.608Z,51.13
2018-02-27T01:52:55.597Z,51.12
2018-02-27T01:53:55.977Z,51.35
2018-02-27T01:54:55.620Z,51.27
2018-02-27T01:55:55.632Z,51.03
2018-02-27T01:56:55.617Z,50.87
2018-02-27T01:57:55.622Z,51.03
2018-02-27T01:58:55.643Z,51.29
2018-02-27T01:59:55.629Z,51.19
2018-02-27T02:00:55.687Z,51.42
2018-02-27T02:01:55.791Z,51.31
2018-02-27T02:02:55.792Z,51.48
2018-02-27T02:03:55.788Z,51.55
2018-02-27T02:04:55.785Z,51.54
2018-02-27T02:05:55.804Z,51.69
2018-02-27T02:06:55.639Z,51.78
2018-02-27T02:07:55.822Z,51.64
2018-02-27T02:08:55.808Z,51.77
2018-02-27T02:09:55.796Z,51.51
2018-02-27T02:10:55.824Z,51.35
2018-02-27T02:11:55.829Z,51.32
2018-02-27T02:12:55.883Z,51.45
2018-02-27T02:13:55.825Z,51.39
2018-02-27T02:14:55.832Z,51.42
2018-02-27T02:15:55.818Z,51.62
2018-02-27T02:16:55.843Z,51.46
2018-02-27T02:17:55.838Z,51.5
2018-02-27T02:18:55.825Z,51.64
2018-02-27T02:19:57.945Z,51.48
2018-02-27T02:20:56.879Z,51.57
2018-02-27T02:21:58.646Z,51.49
2018-02-27T02:22:55.838Z,51.5
2018-02-27T02:23:55.845Z,51.7
2018-02-27T02:24:55.882Z,51.67
2018-02-27T02:25:55.868Z,51.68
2018-02-27T02:26:55.875Z,51.57
2018-02-27T02:27:55.704Z,51.78
2018-02-27T02:28:55.859Z,51.89
2018-02-27T02:29:55.894Z,52
2018-02-27T02:30:55.881Z,52
2018-02-27T02:31:56.269Z,52.13
2018-02-27T02:32:55.875Z,51.99
2018-02-27T02:33:55.867Z,52.05
2018-02-27T02:34:55.872Z,52.11
2018-02-27T02:35:55.887Z,52.22
2018-02-27T02:36:55.883Z,52.18
2018-02-27T02:37:55.747Z,52.27
2018-02-27T02:40:01.922Z,52.51
2018-02-27T02:40:55.724Z,52.48
2018-02-27T02:41:55.751Z,52.5
2018-02-27T02:42:55.764Z,52.56
2018-02-27T02:43:55.751Z,52.55
2018-02-27T02:44:55.744Z,52.53
2018-02-27T02:45:55.752Z,52.45
2018-02-27T02:46:55.754Z,52.76
2018-02-27T02:47:55.773Z,52.8
2018-02-27T02:48:55.752Z,52.81
2018-02-27T02:49:55.778Z,52.82
2018-02-27T02:50:55.757Z,52.7
2018-02-27T02:51:55.763Z,52.53
2018-02-27T02:52:55.782Z,52.61
2018-02-27T02:53:55.772Z,52.87
2018-02-27T02:54:55.771Z,53.02
2018-02-27T02:55:55.781Z,53.24
2018-02-27T02:56:55.770Z,53.28
2018-02-27T02:57:55.777Z,53.19
2018-02-27T02:58:55.774Z,53.24
2018-02-27T02:59:55.779Z,53.29
2018-02-27T03:00:55.785Z,53.33
2018-02-27T03:01:55.821Z,53.26
2018-02-27T03:02:55.798Z,53.22
2018-02-27T03:03:55.786Z,53.08
2018-02-27T03:04:55.788Z,52.94
2018-02-27T03:05:55.800Z,53.1
2018-02-27T03:06:55.869Z,53.44
2018-02-27T03:07:55.796Z,53.23
2018-02-27T03:08:55.955Z,53.22
2018-02-27T03:09:55.806Z,53.4
2018-02-27T03:10:55.814Z,53.46
2018-02-27T03:11:55.818Z,53.73
2018-02-27T03:12:55.960Z,53.65
2018-02-27T03:13:55.989Z,53.5
2018-02-27T03:14:55.980Z,53.53
2018-02-27T03:15:55.978Z,53.36
2018-02-27T03:16:55.985Z,53.34
2018-02-27T03:17:56.025Z,53.44
2018-02-27T03:18:56.005Z,53.72
2018-02-27T03:19:56.002Z,53.73
2018-02-27T03:20:56.003Z,53.47
2018-02-27T03:21:56.018Z,53.57
2018-02-27T03:22:56.038Z,53.55
2018-02-27T03:23:56.018Z,53.87
2018-02-27T03:24:56.040Z,53.84
2018-02-27T03:25:56.033Z,53.8
2018-02-27T03:26:56.019Z,53.62
2018-02-27T03:27:56.032Z,54.14
2018-02-27T03:28:55.902Z,54
2018-02-27T03:29:56.070Z,53.89
2018-02-27T03:30:56.056Z,54.08
2018-02-27T03:31:55.892Z,53.86
2018-02-27T03:32:56.042Z,54.27
2018-02-27T03:33:56.078Z,54.57
2018-02-27T03:34:56.046Z,54.59
2018-02-27T03:35:56.043Z,54.79
2018-02-27T03:36:56.058Z,55.01
2018-02-27T03:37:56.044Z,55.21
2018-02-27T03:38:56.050Z,55.28
2018-02-27T03:39:56.045Z,55.53
2018-02-27T03:40:56.045Z,55.59
2018-02-27T03:41:56.049Z,55.25
2018-02-27T03:42:56.059Z,55.68
2018-02-27T03:43:56.125Z,55.76
2018-02-27T03:44:56.079Z,55.86
2018-02-27T03:45:55.917Z,56.01
2018-02-27T03:46:56.086Z,56.07
2018-02-27T03:47:56.085Z,56.15
2018-02-27T03:48:55.937Z,56.29
2018-02-27T03:49:56.096Z,56.01
2018-02-27T03:50:55.944Z,55.93
2018-02-27T03:51:55.934Z,55.94
2018-02-27T03:52:55.970Z,56.11
2018-02-27T03:53:55.964Z,56.11
2018-02-27T03:54:55.956Z,55.69
2018-02-27T03:55:55.963Z,55.49
2018-02-27T03:56:55.967Z,55.6
2018-02-27T03:57:55.965Z,55.63
2018-02-27T03:58:55.976Z,55.48
2018-02-27T03:59:55.966Z,55.64
2018-02-27T04:00:55.978Z,55.32
2018-02-27T04:01:56.127Z,55.52
2018-02-27T04:02:55.994Z,54.98
2018-02-27T04:05:02.231Z,55.43
2018-02-27T04:05:56.002Z,55.32
2018-02-27T04:06:56.001Z,55.09
2018-02-27T04:07:56.021Z,54.68
2018-02-27T04:08:56.009Z,54.72
2018-02-27T04:09:56.003Z,54.8
2018-02-27T04:10:56.176Z,54.65
2018-02-27T04:11:56.015Z,54.64
2018-02-27T04:13:56.151Z,54.75
2018-02-27T04:14:56.017Z,54.8
2018-02-27T04:15:56.012Z,54.7
2018-02-27T04:16:56.027Z,54.83
2018-02-27T04:17:56.043Z,54.72
2018-02-27T04:18:56.030Z,54.65
2018-02-27T04:19:56.040Z,54.67
2018-02-27T04:20:56.040Z,54.63
2018-02-27T04:21:56.052Z,54.45
2018-02-27T04:24:16.816Z,54.69
2018-02-27T04:24:56.206Z,54.83
2018-02-27T04:25:56.218Z,55.16
2018-02-27T04:26:56.215Z,54.94
2018-02-27T04:27:56.205Z,54.77
2018-02-27T04:28:56.219Z,55
2018-02-27T04:29:56.223Z,55.26
2018-02-27T04:30:56.216Z,55.4
2018-02-27T04:31:56.228Z,55.3
2018-02-27T04:32:56.242Z,55.14
2018-02-27T04:33:56.245Z,55.45
2018-02-27T04:34:56.238Z,55.36
2018-02-27T04:35:56.079Z,55.38
2018-02-27T04:36:56.256Z,55.3
2018-02-27T04:37:56.246Z,55.59
2018-02-27T04:38:56.252Z,55.42
2018-02-27T04:39:56.093Z,55.53
2018-02-27T04:40:56.250Z,55.24
2018-02-27T04:41:56.278Z,54.95
2018-02-27T04:42:56.108Z,55.05
2018-02-27T04:43:56.100Z,55.21
2018-02-27T04:44:56.354Z,55.14
2018-02-27T04:45:56.122Z,55.17
2018-02-27T04:46:56.173Z,55.01
2018-02-27T04:47:56.121Z,55.21
2018-02-27T04:48:56.146Z,55.36
2018-02-27T04:49:56.195Z,55.41
2018-02-27T04:52:02.413Z,55.62
2018-02-27T04:52:56.432Z,55.51
2018-02-27T04:53:56.179Z,55.26
2018-02-27T04:54:56.143Z,55.41
2018-02-27T04:55:56.144Z,55.03
2018-02-27T04:56:56.143Z,55.35
2018-02-27T04:57:56.137Z,55.19
2018-02-27T04:58:56.143Z,55.2
2018-02-27T04:59:56.167Z,55.1
2018-02-27T05:00:56.162Z,55.16
2018-02-27T05:01:56.178Z,55.19
2018-02-27T05:02:56.165Z,55.44
2018-02-27T05:03:56.229Z,55.4
2018-02-27T05:04:56.188Z,55.38
2018-02-27T05:05:56.181Z,55.41
2018-02-27T05:06:56.187Z,55.26
2018-02-27T05:07:56.204Z,55.37
2018-02-27T05:08:56.180Z,55.39
2018-02-27T05:09:56.186Z,55.38
2018-02-27T05:10:56.187Z,55.22
2018-02-27T05:11:56.187Z,55.21
2018-02-27T05:12:56.225Z,55.09
2018-02-27T05:13:56.201Z,55.15
2018-02-27T05:14:56.357Z,55.31
2018-02-27T05:15:56.195Z,55.07
2018-02-27T05:16:56.183Z,55.16
2018-02-27T05:17:56.410Z,55.05
2018-02-27T05:18:56.355Z,54.91
2018-02-27T05:19:56.192Z,54.93
2018-02-27T05:20:56.203Z,55.07
2018-02-27T05:21:56.318Z,54.98
2018-02-27T05:22:56.200Z,54.96
2018-02-27T05:23:56.457Z,55.12
2018-02-27T05:24:56.214Z,55.14
2018-02-27T05:25:56.464Z,54.88
2018-02-27T05:26:56.228Z,54.9
2018-02-27T05:27:56.391Z,55.12
2018-02-27T05:28:56.448Z,55.07
2018-02-27T05:29:56.244Z,55.28
2018-02-27T05:30:56.464Z,55.04
2018-02-27T05:31:56.250Z,55.17
2018-02-27T05:32:56.246Z,55.11
2018-02-27T05:33:56.432Z,55.09
2018-02-27T05:34:56.266Z,55.28
2018-02-27T05:35:56.261Z,55.25
2018-02-27T05:36:56.426Z,55.19
2018-02-27T05:37:56.405Z,55.32
2018-02-27T05:38:56.426Z,55.3
2018-02-27T05:39:56.424Z,55.01
2018-02-27T05:40:56.440Z,55.63
2018-02-27T05:41:56.455Z,55.52
2018-02-27T05:42:56.440Z,55.82
2018-02-27T05:43:56.431Z,55.86
2018-02-27T05:44:56.438Z,55.68
2018-02-27T05:45:56.471Z,55.62
2018-02-27T05:46:56.464Z,55.79
2018-02-27T05:47:56.439Z,55.93
2018-02-27T05:48:56.454Z,55.95
2018-02-27T05:49:56.472Z,56.05
2018-02-27T05:50:56.453Z,56.06
2018-02-27T05:51:56.461Z,56.04
2018-02-27T05:52:56.457Z,56.1
2018-02-27T05:53:56.480Z,56.25
2018-02-27T05:54:56.309Z,56.38
2018-02-27T05:55:56.314Z,56.73
2018-02-27T05:56:56.364Z,57.15
2018-02-27T05:57:56.336Z,57.54
2018-02-27T05:58:56.322Z,57.67
2018-02-27T05:59:56.426Z,57.37
2018-02-27T06:00:56.396Z,57.53
2018-02-27T06:01:56.500Z,57.2
2018-02-27T06:02:56.448Z,57.02
2018-02-27T06:03:56.350Z,57.05
2018-02-27T06:04:56.663Z,57.38
2018-02-27T06:05:56.365Z,57.56
2018-02-27T06:06:56.360Z,57.31
2018-02-27T06:07:56.394Z,57.61
2018-02-27T06:08:56.384Z,57.1
2018-02-27T06:09:56.448Z,56.96
2018-02-27T06:10:56.383Z,56.83
2018-02-27T06:11:56.396Z,56.88
2018-02-27T06:12:56.392Z,56.57
2018-02-27T06:13:56.412Z,56.99
2018-02-27T06:14:56.547Z,56.75
2018-02-27T06:15:56.434Z,56.93
2018-02-27T06:16:56.415Z,57.08
2018-02-27T06:17:56.408Z,57.09
2018-02-27T06:18:56.423Z,57.05
2018-02-27T06:19:56.406Z,58.97
2018-02-27T06:20:56.430Z,57.87
2018-02-27T06:21:56.423Z,57.51
2018-02-27T06:22:56.398Z,57.67
2018-02-27T06:23:56.416Z,57.88
2018-02-27T06:24:56.410Z,58.01
2018-02-27T06:25:56.410Z,58.02
2018-02-27T06:26:56.600Z,57.75
2018-02-27T06:27:56.580Z,58.04
2018-02-27T06:28:56.588Z,59.01
2018-02-27T06:29:56.445Z,59.15
2018-02-27T06:30:56.609Z,59.06
2018-02-27T06:31:56.611Z,58.72
2018-02-27T06:32:56.487Z,58.83
2018-02-27T06:33:56.454Z,58.84
2018-02-27T06:34:56.448Z,58.63
2018-02-27T06:35:56.443Z,58.69
2018-02-27T06:36:56.452Z,58.64
2018-02-27T06:37:56.460Z,58.7
2018-02-27T06:38:56.455Z,58.28
2018-02-27T06:39:56.464Z,58.56
2018-02-27T06:40:56.465Z,58.5
2018-02-27T06:41:56.640Z,58.42
2018-02-27T06:42:56.488Z,58.3
2018-02-27T06:43:56.480Z,58.08
2018-02-27T06:44:56.483Z,58.2
2018-02-27T06:45:56.477Z,58.1
2018-02-27T06:46:56.493Z,57.83
2018-02-27T06:47:56.651Z,57.85
2018-02-27T06:48:56.662Z,58.53
2018-02-27T06:49:56.659Z,58.43
2018-02-27T06:50:56.671Z,58.13
2018-02-27T06:51:56.496Z,58.04
2018-02-27T06:52:56.674Z,58.35
2018-02-27T06:53:56.684Z,58.55
2018-02-27T06:54:56.684Z,58.56
2018-02-27T06:55:56.726Z,58.78
2018-02-27T06:56:56.706Z,58.88
2018-02-27T06:57:56.686Z,58.3
2018-02-27T06:58:56.714Z,58.28
2018-02-27T06:59:56.708Z,58.11
2018-02-27T07:00:56.711Z,58.45
2018-02-27T07:01:56.706Z,58.53
2018-02-27T07:02:56.729Z,58.56
2018-02-27T07:03:56.710Z,58.72
2018-02-27T07:04:56.773Z,58.4
2018-02-27T07:05:56.565Z,58.31
2018-02-27T07:06:56.624Z,58.04
2018-02-27T07:07:56.574Z,58.01
2018-02-27T07:08:56.579Z,57.9
2018-02-27T07:09:56.726Z,57.33
2018-02-27T07:10:56.577Z,57.72
2018-02-27T07:11:56.572Z,57.56
2018-02-27T07:12:56.751Z,57.43
2018-02-27T07:13:56.733Z,57.37
2018-02-27T07:14:56.744Z,57.44
2018-02-27T07:15:56.596Z,57.84
2018-02-27T07:16:56.599Z,57.68
2018-02-27T07:17:56.624Z,57.83
2018-02-27T07:18:56.892Z,57.71
2018-02-27T07:19:56.762Z,57.32
2018-02-27T07:20:56.771Z,57.28
2018-02-27T07:21:56.769Z,57.44
2018-02-27T07:22:56.772Z,57.16
2018-02-27T07:23:56.615Z,57.33
2018-02-27T07:24:56.621Z,57.39
2018-02-27T07:25:56.630Z,57.57
2018-02-27T07:26:56.761Z,57.66
2018-02-27T07:27:56.829Z,57.62
2018-02-27T07:28:56.821Z,57.47
2018-02-27T07:29:56.638Z,57.2
2018-02-27T07:30:56.638Z,57.34
2018-02-27T07:31:56.637Z,57.18
2018-02-27T07:32:56.642Z,57.48
2018-02-27T07:33:56.822Z,57.62
2018-02-27T07:34:56.836Z,57.45
2018-02-27T07:35:56.799Z,57.58
2018-02-27T07:36:56.655Z,57.62
2018-02-27T07:37:56.664Z,57.54
2018-02-27T07:38:56.667Z,57.66
2018-02-27T07:39:56.756Z,58.02
2018-02-27T07:40:56.684Z,57.88
2018-02-27T07:41:56.704Z,57.92
2018-02-27T07:42:56.668Z,57.77
2018-02-27T07:43:56.681Z,57.73
2018-02-27T07:44:56.742Z,57.57
2018-02-27T07:45:56.674Z,57.42
2018-02-27T07:46:56.872Z,57.23
2018-02-27T07:47:56.838Z,56.67
2018-02-27T07:48:56.694Z,56.1
2018-02-27T07:49:56.673Z,56.42
2018-02-27T07:50:56.696Z,57
2018-02-27T07:51:56.720Z,57.01
2018-02-27T07:52:56.851Z,57.02
2018-02-27T07:53:56.722Z,56.86
2018-02-27T07:54:56.707Z,56.84
2018-02-27T07:55:57.158Z,57.02
2018-02-27T07:56:56.726Z,56.8
2018-02-27T07:57:56.716Z,56.27
2018-02-27T07:58:56.718Z,56.28
2018-02-27T07:59:56.889Z,55.46
2018-02-27T08:00:56.907Z,55.22
2018-02-27T08:01:56.883Z,54.98
2018-02-27T08:02:56.882Z,54.87
2018-02-27T08:03:57.047Z,55.12
2018-02-27T08:04:56.900Z,55.25
2018-02-27T08:05:56.937Z,55.37
2018-02-27T08:06:56.737Z,55.14
2018-02-27T08:07:56.913Z,55.19
2018-02-27T08:08:56.903Z,54.88
2018-02-27T08:09:56.921Z,54.81
2018-02-27T08:10:56.906Z,54.81
2018-02-27T08:11:56.747Z,53.68
2018-02-27T08:12:56.909Z,53.6
2018-02-27T08:13:56.909Z,53.46
2018-02-27T08:14:56.939Z,53.61
2018-02-27T08:15:57.334Z,53.84
2018-02-27T08:16:56.943Z,53.11
2018-02-27T08:17:56.946Z,53.1
2018-02-27T08:18:56.787Z,53.08
2018-02-27T08:19:56.938Z,52.11
2018-02-27T08:20:56.825Z,51.99
2018-02-27T08:21:57.026Z,51.73
2018-02-27T08:22:56.977Z,51.67
2018-02-27T08:23:56.944Z,51.93
2018-02-27T08:24:56.936Z,51.7
2018-02-27T08:25:56.961Z,51.82
2018-02-27T08:26:56.938Z,51.84
2018-02-27T08:27:56.939Z,51.94
2018-02-27T08:28:56.959Z,52.25
2018-02-27T08:29:57.002Z,52.19
2018-02-27T08:30:56.990Z,52.2
2018-02-27T08:31:56.958Z,52.05
2018-02-27T08:32:56.810Z,51.6
2018-02-27T08:33:56.960Z,50.7
2018-02-27T08:34:56.813Z,50.1
2018-02-27T08:35:56.793Z,50.24
2018-02-27T08:36:56.872Z,49.74
2018-02-27T08:37:56.824Z,49.79
2018-02-27T08:38:56.814Z,49.77
2018-02-27T08:39:56.820Z,49.93
2018-02-27T08:40:56.831Z,50.22
2018-02-27T08:41:57.026Z,49.88
2018-02-27T08:42:56.995Z,49.71
2018-02-27T08:43:56.997Z,49.68
2018-02-27T08:44:56.887Z,49.68
2018-02-27T08:45:56.857Z,50.03
2018-02-27T08:46:56.861Z,50.25
2018-02-27T08:47:56.838Z,50.09
2018-02-27T08:48:56.875Z,49.84
2018-02-27T08:49:56.859Z,49.38
2018-02-27T08:50:57.088Z,48.47
2018-02-27T08:51:56.864Z,48.2
2018-02-27T08:52:56.893Z,47.88
2018-02-27T08:53:56.862Z,47.83
2018-02-27T08:54:57.058Z,47.77
2018-02-27T08:55:57.058Z,47.93
2018-02-27T08:56:56.869Z,47.84
2018-02-27T08:57:57.034Z,47.82
2018-02-27T08:58:56.875Z,47.63
2018-02-27T08:59:56.881Z,47.46
2018-02-27T09:00:56.888Z,47.68
2018-02-27T09:01:56.879Z,47.23
2018-02-27T09:02:56.887Z,47.54
2018-02-27T09:03:56.893Z,47.98
2018-02-27T09:04:56.900Z,47.73
2018-02-27T09:05:56.890Z,47.4
2018-02-27T09:06:56.896Z,47.14
2018-02-27T09:07:56.921Z,47.06
2018-02-27T09:08:56.913Z,47.35
2018-02-27T09:09:56.968Z,47.51
2018-02-27T09:10:56.940Z,47.52
2018-02-27T09:11:57.080Z,47
2018-02-27T09:12:57.075Z,47.03
2018-02-27T09:13:57.081Z,47.06
2018-02-27T09:14:57.082Z,47.04
2018-02-27T09:15:57.089Z,47.08
2018-02-27T09:16:56.932Z,46.78
2018-02-27T09:17:57.077Z,46.91
2018-02-27T09:18:57.073Z,46.95
2018-02-27T09:19:57.101Z,46.67
2018-02-27T09:20:56.934Z,47.03
2018-02-27T09:21:57.095Z,46.95
2018-02-27T09:22:57.118Z,47.17
2018-02-27T09:23:57.109Z,46.41
2018-02-27T09:24:57.139Z,45.99
2018-02-27T09:25:57.122Z,45.17
2018-02-27T09:26:57.106Z,44.83
2018-02-27T09:27:57.106Z,45.02
2018-02-27T09:28:57.118Z,45.11
2018-02-27T09:29:57.423Z,45.62
2018-02-27T09:30:57.117Z,45.61
2018-02-27T09:31:57.125Z,45.58
2018-02-27T09:32:57.123Z,45.82
2018-02-27T09:33:57.126Z,46.44
2018-02-27T09:34:57.320Z,45.56
2018-02-27T09:35:57.136Z,45.67
2018-02-27T09:36:57.141Z,45.48
2018-02-27T09:37:57.144Z,45.31
2018-02-27T09:38:57.160Z,45.07
2018-02-27T09:39:57.174Z,44.91
2018-02-27T09:40:57.159Z,44.81
2018-02-27T09:41:57.147Z,44.78
2018-02-27T09:42:57.188Z,44.88
2018-02-27T09:43:57.162Z,44.83
2018-02-27T09:44:57.184Z,44.81
2018-02-27T09:45:57.157Z,44.53
2018-02-27T09:46:57.060Z,44.71
2018-02-27T09:47:57.022Z,44.82
2018-02-27T09:48:57.018Z,44.83
2018-02-27T09:49:57.024Z,44.33
2018-02-27T09:50:57.035Z,44.49
2018-02-27T09:51:57.033Z,44.77
2018-02-27T09:52:57.025Z,44.61
2018-02-27T09:53:57.186Z,44.9
2018-02-27T09:54:57.234Z,44.43
2018-02-27T09:55:57.148Z,44.28
2018-02-27T09:56:57.046Z,44.04
2018-02-27T09:57:57.102Z,44.38
2018-02-27T09:58:57.055Z,44.23
2018-02-27T09:59:57.079Z,44.31
2018-02-27T10:00:57.063Z,44.28
2018-02-27T10:01:57.062Z,43.86
2018-02-27T10:02:57.093Z,44.26
2018-02-27T10:03:57.072Z,43.98
2018-02-27T10:04:57.112Z,43.76
2018-02-27T10:05:57.073Z,43.33
2018-02-27T10:06:57.073Z,44.15
2018-02-27T10:07:57.088Z,44.75
2018-02-27T10:08:57.093Z,44.11
2018-02-27T10:09:57.145Z,43.73
2018-02-27T10:10:57.097Z,43.35
2018-02-27T10:11:57.112Z,43.96
2018-02-27T10:12:57.107Z,43.39
2018-02-27T10:13:57.113Z,43.76
2018-02-27T10:16:57.208Z,43.14
2018-02-27T10:17:57.124Z,42.78
2018-02-27T10:18:57.132Z,42.69
2018-02-27T10:19:57.173Z,42.77
2018-02-27T10:20:57.145Z,42.85
2018-02-27T10:21:57.135Z,42.51
2018-02-27T10:22:57.303Z,42.13
2018-02-27T10:25:03.520Z,41.97
2018-02-27T10:25:57.302Z,42.96
2018-02-27T10:26:57.310Z,43.46
2018-02-27T10:27:57.311Z,43.68
2018-02-27T10:28:57.335Z,43.78
2018-02-27T10:29:57.352Z,43.75
2018-02-27T10:30:57.374Z,43.46
2018-02-27T10:31:57.217Z,43.48
2018-02-27T10:32:57.359Z,42.61
2018-02-27T10:33:57.339Z,41.96
2018-02-27T10:34:57.641Z,42.23
2018-02-27T10:35:57.544Z,42.73
2018-02-27T10:36:57.350Z,42.53
2018-02-27T10:37:57.337Z,42.2
2018-02-27T10:38:57.183Z,42.13
2018-02-27T10:39:57.390Z,42
2018-02-27T10:40:57.206Z,42.1
2018-02-27T10:41:57.219Z,42.01
2018-02-27T10:42:57.193Z,41.81
2018-02-27T10:43:57.201Z,41.18
2018-02-27T10:44:57.205Z,41.58
2018-02-27T10:45:57.252Z,41.91
2018-02-27T10:46:57.218Z,41.58
2018-02-27T10:47:57.228Z,41.51
2018-02-27T10:48:57.401Z,41.36
2018-02-27T10:49:57.372Z,40.87
2018-02-27T10:50:57.257Z,41.4
2018-02-27T10:51:57.247Z,41.1
2018-02-27T10:52:57.246Z,40.94
2018-02-27T10:53:57.239Z,40.49
2018-02-27T10:54:57.379Z,40.85
2018-02-27T10:55:57.236Z,41.4
2018-02-27T10:56:57.289Z,40.16
2018-02-27T10:57:57.261Z,39.62
2018-02-27T10:58:57.268Z,39.56
2018-02-27T10:59:57.287Z,39.49
2018-02-27T11:00:57.249Z,39.84
2018-02-27T11:01:57.355Z,40.25
2018-02-27T11:02:57.258Z,39.73
2018-02-27T11:03:57.254Z,40.31
2018-02-27T11:04:57.264Z,39.85
2018-02-27T11:05:57.266Z,40
2018-02-27T11:06:57.274Z,39.01
2018-02-27T11:07:57.285Z,39.94
2018-02-27T11:08:57.264Z,40.28
2018-02-27T11:11:03.509Z,39.7
2018-02-27T11:11:57.305Z,39.68
2018-02-27T11:12:57.348Z,39.52
2018-02-27T11:13:57.490Z,39.08
2018-02-27T11:14:57.344Z,38.8
2018-02-27T11:15:57.760Z,38.91
2018-02-27T11:16:57.436Z,38.99
2018-02-27T11:17:57.295Z,39.01
2018-02-27T11:18:57.303Z,38.36
2018-02-27T11:19:57.510Z,38.32
2018-02-27T11:20:57.319Z,38.44
2018-02-27T11:21:57.353Z,37.9
2018-02-27T11:22:57.318Z,38.05
2018-02-27T11:23:57.349Z,38.21
2018-02-27T11:24:57.482Z,38.33
2018-02-27T11:25:57.332Z,38.93
2018-02-27T11:26:57.347Z,39.14
2018-02-27T11:27:57.341Z,38.84
2018-02-27T11:28:57.365Z,39.12
2018-02-27T11:29:57.351Z,39.32
2018-02-27T11:30:57.373Z,38.75
2018-02-27T11:31:57.379Z,38.55
2018-02-27T11:32:57.393Z,37.59
2018-02-27T11:33:57.369Z,37.35
2018-02-27T11:34:57.383Z,36.93
2018-02-27T11:35:57.531Z,37.32
2018-02-27T11:36:57.552Z,36.7
2018-02-27T11:37:57.544Z,36.72
2018-02-27T11:38:57.622Z,36.57
2018-02-27T11:39:57.371Z,36.11
2018-02-27T11:40:57.546Z,35.46
2018-02-27T11:41:57.440Z,35.98
2018-02-27T11:42:57.556Z,36.38
2018-02-27T11:43:57.385Z,36.31
2018-02-27T11:44:57.553Z,36.17
2018-02-27T11:45:57.548Z,35.63
2018-02-27T11:46:57.593Z,35.84
2018-02-27T11:47:57.575Z,36.03
2018-02-27T11:48:57.579Z,36.49
2018-02-27T11:49:57.587Z,36.42
2018-02-27T11:50:57.574Z,36.48
2018-02-27T11:51:57.434Z,36.75
2018-02-27T11:52:57.437Z,36.78
2018-02-27T11:53:57.452Z,36.62
2018-02-27T11:54:57.456Z,36.33
2018-02-27T11:55:57.446Z,36.53
2018-02-27T11:56:57.446Z,36.61
2018-02-27T11:57:57.460Z,36.49
2018-02-27T11:58:57.462Z,36.41
2018-02-27T11:59:57.463Z,36.04
2018-02-27T12:00:57.459Z,35.82
2018-02-27T12:01:57.466Z,35.34
2018-02-27T12:02:57.469Z,35.77
2018-02-27T12:03:57.478Z,35.88
2018-02-27T12:04:57.481Z,35.64
2018-02-27T12:05:57.471Z,35.79
2018-02-27T12:06:57.472Z,36.3
2018-02-27T12:07:57.503Z,36.87
2018-02-27T12:08:57.476Z,36.7
2018-02-27T12:09:57.488Z,36.08
2018-02-27T12:10:57.490Z,36.37
2018-02-27T12:11:57.470Z,36.04
2018-02-27T12:12:57.481Z,35.68
2018-02-27T12:13:57.490Z,35.67
2018-02-27T12:14:57.499Z,36.33
2018-02-27T12:15:57.496Z,36.77
2018-02-27T12:16:57.502Z,36.39
2018-02-27T12:17:57.510Z,36.02
2018-02-27T12:18:57.509Z,36
2018-02-27T12:19:57.534Z,36.38
2018-02-27T12:20:57.540Z,36.63
2018-02-27T12:21:57.550Z,36.75
2018-02-27T12:22:57.541Z,36.04
2018-02-27T12:23:57.583Z,35.6
2018-02-27T12:24:57.571Z,36.29
2018-02-27T12:25:57.555Z,35.89
2018-02-27T12:26:57.568Z,37
2018-02-27T12:27:57.552Z,36.12
2018-02-27T12:28:57.573Z,36.31
2018-02-27T12:29:57.568Z,35.69
2018-02-27T12:30:57.554Z,35.33
2018-02-27T12:31:57.570Z,35.7
2018-02-27T12:32:57.545Z,35.55
2018-02-27T12:33:57.543Z,35.69
2018-02-27T12:34:57.550Z,35.66
2018-02-27T12:35:57.714Z,35.75
2018-02-27T12:36:57.583Z,35.85
2018-02-27T12:37:57.551Z,35.23
2018-02-27T12:38:57.564Z,34.98
2018-02-27T12:39:57.576Z,34.41
2018-02-27T12:40:57.577Z,34.4
2018-02-27T12:41:57.751Z,35.31
2018-02-27T12:42:57.571Z,35.41
2018-02-27T12:43:57.580Z,35.14
2018-02-27T12:44:57.592Z,34.81
2018-02-27T12:45:57.734Z,34.63
2018-02-27T12:46:57.742Z,34.23
2018-02-27T12:47:57.774Z,34
2018-02-27T12:48:57.733Z,33.82
2018-02-27T12:49:57.740Z,34.09
2018-02-27T12:50:57.602Z,33.84
2018-02-27T12:51:57.754Z,33.63
2018-02-27T12:52:57.648Z,33.78
2018-02-27T12:53:57.776Z,33.61
2018-02-27T12:54:57.764Z,33.67
2018-02-27T12:55:57.599Z,33.85
2018-02-27T12:56:57.618Z,34.58
2018-02-27T12:57:57.807Z,34.97
2018-02-27T12:58:57.797Z,35.51
2018-02-27T12:59:57.604Z,35.59
2018-02-27T13:00:57.777Z,34.6
2018-02-27T13:01:57.784Z,34.52
2018-02-27T13:02:57.636Z,34.29
2018-02-27T13:03:57.817Z,33.5
2018-02-27T13:04:58.026Z,34
2018-02-27T13:05:57.807Z,33.71
2018-02-27T13:06:57.640Z,34.07
2018-02-27T13:07:57.674Z,34.2